KABQKALM [1048]

Guest
Details From KABQ - Albuquerque International Sunport
To KALM - Alamogordo White Sands Rgnl
Flight Number 1048
Tags Real Commercial Decoded
Created
Modified
Stats Distance 153 nm / 283 km
Max Altitude 3,052 ft / 930 m
Waypoints 4
Social Downloads 2
Likes 0
Share VATSIM

Download

Looking for another format? Having issues loading an existing format? Contact us
Advertisement - Login to hide

Notes

Decoded

Route

KABQ HONER PAYNE KALM

ID Type Via Altitude Latitude Longitude Leg Dist Tot Dist Heading (true) Name
O KABQ APT - 0 ft / 0 m 35.04353˚ -106.62075˚ - 0 nm - -
HONER FIX - 3,052 ft / 930 m 32.71594˚ -106.14003˚ 141 nm 141 nm 170° / 170° -
PAYNE FIX - 1,681 ft / 512 m 32.77444˚ -106.06958˚ 5 nm 146 nm 45° / 45° -
O KALM APT - 0 ft / 0 m 32.84861˚ -105.98611˚ 6 nm 152 nm 43° / 43° -

Altitude Profile

Advertisement - Login to hide

KABQ

Details ICAO KABQ (ABQ)
Name Albuquerque International Sunport
Region United States
Timezone America/Denver (UTC-7.0)
Stats Elevation 5,355 ft / 1,632 m (AMSL)
Location 35.039647° -106.610582°
Runways 4
Magnetic Variation 8.535° E

METAR

KABQ 150752Z 32006KT 10SM CLR M01/M09 A3031 RMK AO2 SLP261 T10061094

Decode

TAF

TAF KABQ 150521Z 1506/1606 36006KT P6SM SKC FM151800 29005KT P6SM SCT250 FM160200 09006KT P6SM SCT200

Decode

Departure Runways

ID Width Length Bearing (true) Bearing (mag) Surface Threshold Offset Overrun Length
03 150 ft / 46 m 10,002 ft / 3,049 m 44.66° 36.12° Concrete 0 ft / 0 m 400 ft / 122 m
08 150 ft / 46 m 13,762 ft / 4,195 m 90.43° 81.89° Concrete 1,000 ft / 305 m 550 ft / 168 m
12 150 ft / 46 m 5,998 ft / 1,828 m 128.97° 120.43° Concrete 0 ft / 0 m 0 ft / 0 m
17 150 ft / 46 m 10,023 ft / 3,055 m 183.36° 174.82° Asphalt 890 ft / 271 m 100 ft / 30 m
21 150 ft / 46 m 10,002 ft / 3,049 m 224.67° 216.13° Concrete 0 ft / 0 m 0 ft / 0 m
26 150 ft / 46 m 13,762 ft / 4,195 m 270.45° 261.91° Concrete 0 ft / 0 m 1,000 ft / 305 m
30 150 ft / 46 m 5,998 ft / 1,828 m 308.98° 300.44° Concrete 0 ft / 0 m 0 ft / 0 m
35 150 ft / 46 m 10,023 ft / 3,055 m 3.36° 354.82° Asphalt 0 ft / 0 m 200 ft / 61 m

KALM

Details ICAO KALM (ALM)
Name ALAMOGORDO WHITE SANDS RGNL
Region United States
Timezone America/Denver (UTC-7.0)
Stats Elevation 4,200 ft / 1,280 m (AMSL)
Location 32.841845° -105.988007°
Runways 2
Magnetic Variation 8.050° E

METAR

KALM 150815Z AUTO 17010KT 10SM CLR M02/M09 A3028 RMK AO2

Decode

TAF

Not found

Destination Runways

ID Width Length Bearing (true) Bearing (mag) Surface Threshold Offset Overrun Length
03 150 ft / 46 m 7,007 ft / 2,136 m 45.42° 37.37° Asphalt 0 ft / 0 m 0 ft / 0 m
16 200 ft / 61 m 3,573 ft / 1,089 m 173.20° 165.15° Dirt 0 ft / 0 m 0 ft / 0 m
21 150 ft / 46 m 7,007 ft / 2,136 m 225.43° 217.38° Asphalt 0 ft / 0 m 0 ft / 0 m
34 200 ft / 61 m 3,573 ft / 1,089 m 353.20° 345.15° Dirt 0 ft / 0 m 0 ft / 0 m

Popular Alternatives